sensor_id;sensor_type;location;lat;lon;timestamp;pressure;altitude;pressure_sealevel;temperature;humidity
26376;BME280;30544;42.196;24.336;2023-02-14T00:02:07;100623.53;;;2.90;62.57
26376;BME280;30544;42.196;24.336;2023-02-14T00:04:34;100624.59;;;2.97;61.64
26376;BME280;30544;42.196;24.336;2023-02-14T00:07:03;100632.47;;;3.00;62.63
26376;BME280;30544;42.196;24.336;2023-02-14T00:09:30;100616.72;;;3.02;62.41
26376;BME280;30544;42.196;24.336;2023-02-14T00:11:57;100613.66;;;3.05;61.03
26376;BME280;30544;42.196;24.336;2023-02-14T00:14:23;100623.44;;;3.08;62.22
26376;BME280;30544;42.196;24.336;2023-02-14T00:17:09;100621.16;;;2.95;61.79
26376;BME280;30544;42.196;24.336;2023-02-14T00:19:36;100618.25;;;2.96;61.32
26376;BME280;30544;42.196;24.336;2023-02-14T00:22:03;100619.84;;;3.15;59.92
26376;BME280;30544;42.196;24.336;2023-02-14T00:24:30;100627.09;;;3.24;60.45
26376;BME280;30544;42.196;24.336;2023-02-14T00:26:57;100631.88;;;3.22;60.80
26376;BME280;30544;42.196;24.336;2023-02-14T00:29:26;100633.22;;;3.10;60.19
26376;BME280;30544;42.196;24.336;2023-02-14T00:31:53;100621.34;;;3.01;60.82
26376;BME280;30544;42.196;24.336;2023-02-14T00:34:22;100616.53;;;2.95;61.62
26376;BME280;30544;42.196;24.336;2023-02-14T00:36:49;100618.22;;;2.88;61.42
26376;BME280;30544;42.196;24.336;2023-02-14T00:39:17;100619.88;;;2.81;62.40
26376;BME280;30544;42.196;24.336;2023-02-14T00:41:44;100615.78;;;2.51;62.61
26376;BME280;30544;42.196;24.336;2023-02-14T00:44:12;100616.34;;;2.55;62.36
26376;BME280;30544;42.196;24.336;2023-02-14T00:46:39;100617.28;;;2.46;63.20
26376;BME280;30544;42.196;24.336;2023-02-14T00:49:06;100610.63;;;2.48;62.39
26376;BME280;30544;42.196;24.336;2023-02-14T00:51:34;100614.56;;;2.20;63.96
26376;BME280;30544;42.196;24.336;2023-02-14T00:54:01;100601.75;;;2.20;64.43
26376;BME280;30544;42.196;24.336;2023-02-14T00:56:29;100607.50;;;2.17;64.58
26376;BME280;30544;42.196;24.336;2023-02-14T00:58:55;100599.25;;;2.09;64.07
26376;BME280;30544;42.196;24.336;2023-02-14T01:01:22;100594.63;;;2.09;64.21
26376;BME280;30544;42.196;24.336;2023-02-14T01:03:49;100599.59;;;2.06;64.76
26376;BME280;30544;42.196;24.336;2023-02-14T01:06:16;100594.31;;;2.13;64.16
26376;BME280;30544;42.196;24.336;2023-02-14T01:08:44;100601.50;;;2.14;64.75
26376;BME280;30544;42.196;24.336;2023-02-14T01:11:13;100591.09;;;2.17;64.30
26376;BME280;30544;42.196;24.336;2023-02-14T01:13:40;100598.94;;;2.12;64.50
26376;BME280;30544;42.196;24.336;2023-02-14T01:16:10;100597.81;;;2.23;64.56
26376;BME280;30544;42.196;24.336;2023-02-14T01:18:37;100598.72;;;2.05;64.54
26376;BME280;30544;42.196;24.336;2023-02-14T01:21:16;100595.28;;;2.03;64.82
26376;BME280;30544;42.196;24.336;2023-02-14T01:23:47;100574.25;;;2.04;64.42
26376;BME280;30544;42.196;24.336;2023-02-14T01:26:14;100580.59;;;2.04;64.70
26376;BME280;30544;42.196;24.336;2023-02-14T01:28:42;100589.09;;;2.01;63.85
26376;BME280;30544;42.196;24.336;2023-02-14T01:31:11;100578.91;;;2.11;63.73
26376;BME280;30544;42.196;24.336;2023-02-14T01:33:39;100575.97;;;2.05;64.32
26376;BME280;30544;42.196;24.336;2023-02-14T01:36:07;100575.84;;;2.15;64.00
26376;BME280;30544;42.196;24.336;2023-02-14T01:38:39;100573.44;;;2.11;64.00
26376;BME280;30544;42.196;24.336;2023-02-14T01:41:08;100577.47;;;2.25;64.28
26376;BME280;30544;42.196;24.336;2023-02-14T01:43:52;100583.72;;;2.18;64.00
26376;BME280;30544;42.196;24.336;2023-02-14T01:46:20;100584.50;;;2.02;63.72
26376;BME280;30544;42.196;24.336;2023-02-14T01:48:48;100583.41;;;1.95;64.55
26376;BME280;30544;42.196;24.336;2023-02-14T01:51:17;100580.88;;;2.01;64.34
26376;BME280;30544;42.196;24.336;2023-02-14T01:53:45;100572.66;;;2.01;64.57
26376;BME280;30544;42.196;24.336;2023-02-14T01:56:18;100572.41;;;2.13;63.65
26376;BME280;30544;42.196;24.336;2023-02-14T01:58:48;100562.56;;;2.20;63.45
26376;BME280;30544;42.196;24.336;2023-02-14T02:01:17;100555.41;;;2.27;64.32
26376;BME280;30544;42.196;24.336;2023-02-14T02:03:48;100545.66;;;2.32;64.15
26376;BME280;30544;42.196;24.336;2023-02-14T02:06:21;100539.25;;;2.50;62.80
26376;BME280;30544;42.196;24.336;2023-02-14T02:08:56;100542.91;;;2.66;62.09
26376;BME280;30544;42.196;24.336;2023-02-14T02:11:26;100529.44;;;2.73;61.73
26376;BME280;30544;42.196;24.336;2023-02-14T02:13:53;100526.19;;;2.78;61.33
26376;BME280;30544;42.196;24.336;2023-02-14T02:16:43;100515.34;;;2.68;62.42
26376;BME280;30544;42.196;24.336;2023-02-14T02:19:40;100520.81;;;2.68;62.59
26376;BME280;30544;42.196;24.336;2023-02-14T02:22:36;100516.94;;;2.79;62.06
26376;BME280;30544;42.196;24.336;2023-02-14T02:25:24;100523.78;;;2.83;60.59
26376;BME280;30544;42.196;24.336;2023-02-14T02:28:19;100527.78;;;2.96;60.02
26376;BME280;30544;42.196;24.336;2023-02-14T02:31:19;100527.59;;;2.98;60.11
26376;BME280;30544;42.196;24.336;2023-02-14T02:37:23;100524.91;;;3.06;59.25
26376;BME280;30544;42.196;24.336;2023-02-14T02:40:02;100517.53;;;3.07;58.06
26376;BME280;30544;42.196;24.336;2023-02-14T02:42:38;100519.38;;;2.98;59.49
26376;BME280;30544;42.196;24.336;2023-02-14T02:45:20;100516.81;;;2.96;58.74
26376;BME280;30544;42.196;24.336;2023-02-14T02:47:57;100525.53;;;2.92;59.21
26376;BME280;30544;42.196;24.336;2023-02-14T02:50:31;100521.09;;;2.91;58.54
26376;BME280;30544;42.196;24.336;2023-02-14T02:53:22;100518.16;;;2.84;59.32
26376;BME280;30544;42.196;24.336;2023-02-14T02:55:53;100519.03;;;2.93;58.58
26376;BME280;30544;42.196;24.336;2023-02-14T02:58:43;100515.56;;;2.83;58.97
26376;BME280;30544;42.196;24.336;2023-02-14T03:01:13;100512.66;;;2.84;59.53
26376;BME280;30544;42.196;24.336;2023-02-14T03:03:45;100514.81;;;2.64;61.10
26376;BME280;30544;42.196;24.336;2023-02-14T03:06:30;100505.97;;;2.70;61.67
26376;BME280;30544;42.196;24.336;2023-02-14T03:09:10;100495.31;;;2.67;60.85
26376;BME280;30544;42.196;24.336;2023-02-14T03:11:42;100499.63;;;2.70;61.44
26376;BME280;30544;42.196;24.336;2023-02-14T03:14:18;100506.94;;;2.61;61.49
26376;BME280;30544;42.196;24.336;2023-02-14T03:16:58;100503.22;;;2.70;61.53
26376;BME280;30544;42.196;24.336;2023-02-14T03:19:32;100507.97;;;2.60;62.49
26376;BME280;30544;42.196;24.336;2023-02-14T03:22:07;100505.63;;;2.74;60.51
26376;BME280;30544;42.196;24.336;2023-02-14T03:24:44;100495.81;;;2.63;61.92
26376;BME280;30544;42.196;24.336;2023-02-14T03:27:17;100487.25;;;2.66;61.18
26376;BME280;30544;42.196;24.336;2023-02-14T03:29:55;100485.03;;;2.61;60.84
26376;BME280;30544;42.196;24.336;2023-02-14T03:32:30;100481.59;;;2.59;60.80
26376;BME280;30544;42.196;24.336;2023-02-14T03:35:06;100466.72;;;2.62;60.50
26376;BME280;30544;42.196;24.336;2023-02-14T03:37:39;100476.84;;;2.69;60.93
26376;BME280;30544;42.196;24.336;2023-02-14T03:40:12;100478.53;;;2.62;61.46
26376;BME280;30544;42.196;24.336;2023-02-14T03:42:44;100479.72;;;2.60;61.46
26376;BME280;30544;42.196;24.336;2023-02-14T03:45:18;100480.56;;;2.52;62.37
26376;BME280;30544;42.196;24.336;2023-02-14T03:47:47;100478.97;;;2.50;61.94
26376;BME280;30544;42.196;24.336;2023-02-14T03:50:18;100488.22;;;2.49;63.18
26376;BME280;30544;42.196;24.336;2023-02-14T03:52:45;100488.22;;;2.49;63.54
26376;BME280;30544;42.196;24.336;2023-02-14T03:55:19;100491.59;;;2.34;62.85
26376;BME280;30544;42.196;24.336;2023-02-14T03:57:52;100492.78;;;2.32;63.64
26376;BME280;30544;42.196;24.336;2023-02-14T04:00:19;100478.28;;;2.05;64.52
26376;BME280;30544;42.196;24.336;2023-02-14T04:02:48;100474.78;;;2.21;64.20
26376;BME280;30544;42.196;24.336;2023-02-14T04:05:21;100475.66;;;2.30;63.78
26376;BME280;30544;42.196;24.336;2023-02-14T04:07:52;100464.00;;;2.20;64.19
26376;BME280;30544;42.196;24.336;2023-02-14T04:10:21;100462.81;;;2.30;64.84
26376;BME280;30544;42.196;24.336;2023-02-14T04:12:49;100458.03;;;2.32;65.17
26376;BME280;30544;42.196;24.336;2023-02-14T04:15:16;100459.34;;;2.54;64.17
26376;BME280;30544;42.196;24.336;2023-02-14T04:17:43;100462.44;;;2.67;64.78
26376;BME280;30544;42.196;24.336;2023-02-14T04:20:27;100462.09;;;2.62;64.37
26376;BME280;30544;42.196;24.336;2023-02-14T04:22:54;100445.69;;;2.70;65.23
26376;BME280;30544;42.196;24.336;2023-02-14T04:25:23;100441.41;;;2.76;64.77
26376;BME280;30544;42.196;24.336;2023-02-14T04:27:50;100443.31;;;2.92;63.92
26376;BME280;30544;42.196;24.336;2023-02-14T04:30:17;100447.94;;;2.99;63.10
26376;BME280;30544;42.196;24.336;2023-02-14T04:32:45;100439.88;;;2.98;64.44
26376;BME280;30544;42.196;24.336;2023-02-14T04:35:12;100435.63;;;3.04;63.79
26376;BME280;30544;42.196;24.336;2023-02-14T04:37:39;100439.22;;;3.04;63.99
26376;BME280;30544;42.196;24.336;2023-02-14T04:40:06;100438.53;;;3.02;64.00
26376;BME280;30544;42.196;24.336;2023-02-14T04:42:35;100435.63;;;3.04;63.44
26376;BME280;30544;42.196;24.336;2023-02-14T04:45:04;100428.09;;;3.06;63.22
26376;BME280;30544;42.196;24.336;2023-02-14T04:47:30;100434.56;;;2.96;63.79
26376;BME280;30544;42.196;24.336;2023-02-14T04:49:57;100431.50;;;2.91;63.75
26376;BME280;30544;42.196;24.336;2023-02-14T04:52:24;100420.34;;;2.85;63.81
26376;BME280;30544;42.196;24.336;2023-02-14T04:54:51;100416.91;;;2.83;63.35
26376;BME280;30544;42.196;24.336;2023-02-14T04:57:18;100416.75;;;2.84;63.41
26376;BME280;30544;42.196;24.336;2023-02-14T04:59:46;100414.53;;;2.71;63.99
26376;BME280;30544;42.196;24.336;2023-02-14T05:02:13;100408.34;;;2.69;65.30
26376;BME280;30544;42.196;24.336;2023-02-14T05:04:40;100407.97;;;2.56;64.53
26376;BME280;30544;42.196;24.336;2023-02-14T05:07:07;100415.84;;;2.59;63.62
26376;BME280;30544;42.196;24.336;2023-02-14T05:09:33;100406.06;;;2.49;64.77
26376;BME280;30544;42.196;24.336;2023-02-14T05:12:00;100404.50;;;2.46;63.99
26376;BME280;30544;42.196;24.336;2023-02-14T05:14:27;100401.25;;;2.42;64.83
26376;BME280;30544;42.196;24.336;2023-02-14T05:16:55;100397.50;;;2.44;63.61
26376;BME280;30544;42.196;24.336;2023-02-14T05:19:22;100394.28;;;2.56;64.29
26376;BME280;30544;42.196;24.336;2023-02-14T05:21:49;100394.44;;;2.63;63.47
26376;BME280;30544;42.196;24.336;2023-02-14T05:24:16;100399.75;;;2.64;63.58
26376;BME280;30544;42.196;24.336;2023-02-14T05:26:43;100399.06;;;2.54;64.29
26376;BME280;30544;42.196;24.336;2023-02-14T05:29:09;100394.97;;;2.66;63.56
26376;BME280;30544;42.196;24.336;2023-02-14T05:31:36;100406.28;;;2.71;63.82
26376;BME280;30544;42.196;24.336;2023-02-14T05:34:04;100403.88;;;2.68;63.14
26376;BME280;30544;42.196;24.336;2023-02-14T05:36:31;100406.97;;;2.82;62.29
26376;BME280;30544;42.196;24.336;2023-02-14T05:38:58;100406.47;;;2.78;63.19
26376;BME280;30544;42.196;24.336;2023-02-14T05:41:25;100407.19;;;2.88;61.82
26376;BME280;30544;42.196;24.336;2023-02-14T05:43:51;100398.09;;;3.04;62.29
26376;BME280;30544;42.196;24.336;2023-02-14T05:46:18;100389.53;;;2.99;62.35
26376;BME280;30544;42.196;24.336;2023-02-14T05:48:45;100399.47;;;3.08;62.91
26376;BME280;30544;42.196;24.336;2023-02-14T05:51:13;100412.13;;;2.93;62.90
26376;BME280;30544;42.196;24.336;2023-02-14T05:53:40;100406.00;;;3.07;62.30
26376;BME280;30544;42.196;24.336;2023-02-14T05:56:07;100411.28;;;3.09;62.67
26376;BME280;30544;42.196;24.336;2023-02-14T05:58:34;100401.88;;;3.19;61.28
26376;BME280;30544;42.196;24.336;2023-02-14T06:01:00;100390.03;;;3.19;61.38
26376;BME280;30544;42.196;24.336;2023-02-14T06:03:27;100388.50;;;3.24;62.42
26376;BME280;30544;42.196;24.336;2023-02-14T06:05:54;100391.59;;;3.38;61.37
26376;BME280;30544;42.196;24.336;2023-02-14T06:08:22;100400.13;;;3.51;60.97
26376;BME280;30544;42.196;24.336;2023-02-14T06:10:49;100400.97;;;3.51;61.24
26376;BME280;30544;42.196;24.336;2023-02-14T06:13:16;100397.72;;;3.56;60.72
26376;BME280;30544;42.196;24.336;2023-02-14T06:15:42;100399.75;;;3.70;60.10
26376;BME280;30544;42.196;24.336;2023-02-14T06:18:09;100398.88;;;3.78;60.20
26376;BME280;30544;42.196;24.336;2023-02-14T06:20:36;100403.47;;;3.85;59.46
26376;BME280;30544;42.196;24.336;2023-02-14T06:23:03;100397.97;;;3.93;59.53
26376;BME280;30544;42.196;24.336;2023-02-14T06:25:31;100402.38;;;4.03;59.01
26376;BME280;30544;42.196;24.336;2023-02-14T06:27:58;100395.47;;;4.15;58.34
26376;BME280;30544;42.196;24.336;2023-02-14T06:30:26;100411.88;;;4.39;57.79
26376;BME280;30544;42.196;24.336;2023-02-14T06:32:53;100395.72;;;4.36;57.33
26376;BME280;30544;42.196;24.336;2023-02-14T06:35:20;100394.34;;;4.40;58.14
26376;BME280;30544;42.196;24.336;2023-02-14T06:37:47;100390.84;;;4.55;57.79
26376;BME280;30544;42.196;24.336;2023-02-14T06:40:14;100404.22;;;4.58;58.25
26376;BME280;30544;42.196;24.336;2023-02-14T06:42:42;100411.31;;;4.98;57.23
26376;BME280;30544;42.196;24.336;2023-02-14T06:45:08;100397.66;;;4.90;57.15
26376;BME280;30544;42.196;24.336;2023-02-14T06:47:35;100407.91;;;4.96;57.56
26376;BME280;30544;42.196;24.336;2023-02-14T06:50:03;100403.03;;;5.06;56.84
26376;BME280;30544;42.196;24.336;2023-02-14T06:52:30;100405.94;;;5.27;56.56
26376;BME280;30544;42.196;24.336;2023-02-14T06:54:57;100408.41;;;5.37;57.08
26376;BME280;30544;42.196;24.336;2023-02-14T06:57:24;100419.97;;;5.55;55.82
26376;BME280;30544;42.196;24.336;2023-02-14T06:59:52;100411.84;;;5.77;55.99
26376;BME280;30544;42.196;24.336;2023-02-14T07:02:19;100407.66;;;5.81;55.13
26376;BME280;30544;42.196;24.336;2023-02-14T07:04:46;100405.53;;;5.68;55.62
26376;BME280;30544;42.196;24.336;2023-02-14T07:07:12;100404.94;;;6.10;54.68
26376;BME280;30544;42.196;24.336;2023-02-14T07:09:39;100404.44;;;6.21;53.92
26376;BME280;30544;42.196;24.336;2023-02-14T07:12:06;100402.00;;;6.12;53.96
26376;BME280;30544;42.196;24.336;2023-02-14T07:14:33;100389.91;;;6.42;53.73
26376;BME280;30544;42.196;24.336;2023-02-14T07:17:01;100384.72;;;6.54;52.88
26376;BME280;30544;42.196;24.336;2023-02-14T07:19:28;100383.75;;;6.40;53.25
26376;BME280;30544;42.196;24.336;2023-02-14T07:21:54;100383.44;;;6.71;52.43
26376;BME280;30544;42.196;24.336;2023-02-14T07:24:21;100380.72;;;6.92;52.18
26376;BME280;30544;42.196;24.336;2023-02-14T07:26:48;100379.34;;;7.24;51.43
26376;BME280;30544;42.196;24.336;2023-02-14T07:29:15;100378.63;;;7.16;51.05
26376;BME280;30544;42.196;24.336;2023-02-14T07:31:42;100359.59;;;7.49;50.68
26376;BME280;30544;42.196;24.336;2023-02-14T07:34:10;100370.50;;;7.36;50.71
26376;BME280;30544;42.196;24.336;2023-02-14T07:36:37;100364.59;;;7.39;50.34
26376;BME280;30544;42.196;24.336;2023-02-14T07:39:04;100370.59;;;7.42;50.37
26376;BME280;30544;42.196;24.336;2023-02-14T07:41:31;100359.59;;;7.49;49.56
26376;BME280;30544;42.196;24.336;2023-02-14T07:43:58;100368.44;;;7.66;49.40
26376;BME280;30544;42.196;24.336;2023-02-14T07:46:24;100371.84;;;7.68;49.90
26376;BME280;30544;42.196;24.336;2023-02-14T07:48:51;100373.16;;;8.06;49.14
26376;BME280;30544;42.196;24.336;2023-02-14T07:51:19;100368.63;;;7.64;49.71
26376;BME280;30544;42.196;24.336;2023-02-14T07:53:46;100365.84;;;7.92;49.77
26376;BME280;30544;42.196;24.336;2023-02-14T07:56:13;100364.81;;;7.93;49.23
26376;BME280;30544;42.196;24.336;2023-02-14T07:58:40;100353.81;;;8.06;48.00
26376;BME280;30544;42.196;24.336;2023-02-14T08:01:06;100352.25;;;8.32;47.84
26376;BME280;30544;42.196;24.336;2023-02-14T08:03:33;100358.56;;;8.67;47.37
26376;BME280;30544;42.196;24.336;2023-02-14T08:06:00;100351.38;;;8.31;47.72
26376;BME280;30544;42.196;24.336;2023-02-14T08:08:29;100344.84;;;8.39;47.03
26376;BME280;30544;42.196;24.336;2023-02-14T08:10:57;100351.91;;;8.48;46.83
26376;BME280;30544;42.196;24.336;2023-02-14T08:13:24;100353.72;;;8.76;47.00
26376;BME280;30544;42.196;24.336;2023-02-14T08:15:51;100361.53;;;8.65;46.60
26376;BME280;30544;42.196;24.336;2023-02-14T08:18:31;100362.47;;;9.05;45.65
26376;BME280;30544;42.196;24.336;2023-02-14T08:20:59;100362.25;;;8.94;46.21
26376;BME280;30544;42.196;24.336;2023-02-14T08:23:26;100358.69;;;9.53;44.42
26376;BME280;30544;42.196;24.336;2023-02-14T08:25:54;100358.41;;;8.82;46.62
26376;BME280;30544;42.196;24.336;2023-02-14T08:28:22;100356.09;;;9.05;46.18
26376;BME280;30544;42.196;24.336;2023-02-14T08:30:49;100364.50;;;8.57;46.99
26376;BME280;30544;42.196;24.336;2023-02-14T08:33:16;100366.69;;;8.75;47.42
26376;BME280;30544;42.196;24.336;2023-02-14T08:35:43;100360.31;;;8.74;47.77
26376;BME280;30544;42.196;24.336;2023-02-14T08:38:10;100356.00;;;8.65;47.63
26376;BME280;30544;42.196;24.336;2023-02-14T08:40:37;100361.63;;;9.05;47.59
26376;BME280;30544;42.196;24.336;2023-02-14T08:43:05;100367.16;;;9.05;47.48
26376;BME280;30544;42.196;24.336;2023-02-14T08:45:32;100372.22;;;8.82;47.63
26376;BME280;30544;42.196;24.336;2023-02-14T08:48:01;100382.72;;;9.19;46.69
26376;BME280;30544;42.196;24.336;2023-02-14T08:50:28;100381.22;;;8.90;46.91
26376;BME280;30544;42.196;24.336;2023-02-14T08:52:55;100371.00;;;8.97;46.95
26376;BME280;30544;42.196;24.336;2023-02-14T08:55:21;100368.47;;;9.22;47.30
26376;BME280;30544;42.196;24.336;2023-02-14T08:57:48;100365.69;;;8.96;47.41
26376;BME280;30544;42.196;24.336;2023-02-14T09:00:18;100361.03;;;9.43;46.48
26376;BME280;30544;42.196;24.336;2023-02-14T09:02:49;100362.25;;;9.00;46.92
26376;BME280;30544;42.196;24.336;2023-02-14T09:05:16;100361.00;;;8.96;47.17
26376;BME280;30544;42.196;24.336;2023-02-14T09:07:42;100354.41;;;9.17;46.53
26376;BME280;30544;42.196;24.336;2023-02-14T09:10:10;100375.25;;;9.07;47.46
26376;BME280;30544;42.196;24.336;2023-02-14T09:12:38;100346.34;;;9.09;46.76
26376;BME280;30544;42.196;24.336;2023-02-14T09:15:05;100345.50;;;9.42;46.06
26376;BME280;30544;42.196;24.336;2023-02-14T09:17:33;100354.84;;;9.14;46.86
26376;BME280;30544;42.196;24.336;2023-02-14T09:20:00;100337.97;;;9.82;45.57
26376;BME280;30544;42.196;24.336;2023-02-14T09:22:31;100340.78;;;9.62;46.65
26376;BME280;30544;42.196;24.336;2023-02-14T09:24:58;100334.59;;;9.20;46.58
26376;BME280;30544;42.196;24.336;2023-02-14T09:27:25;100349.28;;;9.67;46.16
26376;BME280;30544;42.196;24.336;2023-02-14T09:29:51;100334.19;;;9.30;46.95
26376;BME280;30544;42.196;24.336;2023-02-14T09:32:18;100322.03;;;9.51;47.24
26376;BME280;30544;42.196;24.336;2023-02-14T09:34:46;100325.91;;;9.43;46.22
26376;BME280;30544;42.196;24.336;2023-02-14T09:37:13;100321.38;;;9.75;45.18
26376;BME280;30544;42.196;24.336;2023-02-14T09:39:58;100330.81;;;9.41;47.18
26376;BME280;30544;42.196;24.336;2023-02-14T09:42:41;100331.66;;;9.28;47.52
26376;BME280;30544;42.196;24.336;2023-02-14T09:45:13;100356.75;;;9.07;48.14
26376;BME280;30544;42.196;24.336;2023-02-14T09:47:44;100328.44;;;9.45;47.74
26376;BME280;30544;42.196;24.336;2023-02-14T09:50:19;100323.34;;;9.28;47.20
26376;BME280;30544;42.196;24.336;2023-02-14T09:52:49;100320.75;;;9.67;46.81
26376;BME280;30544;42.196;24.336;2023-02-14T09:55:17;100314.94;;;9.88;46.05
26376;BME280;30544;42.196;24.336;2023-02-14T09:57:57;100299.91;;;8.98;48.35
26376;BME280;30544;42.196;24.336;2023-02-14T10:00:33;100303.72;;;9.37;47.26
26376;BME280;30544;42.196;24.336;2023-02-14T10:03:11;100314.16;;;9.15;48.39
26376;BME280;30544;42.196;24.336;2023-02-14T10:05:46;100309.91;;;8.92;49.04
26376;BME280;30544;42.196;24.336;2023-02-14T10:08:32;100310.31;;;9.22;47.07
26376;BME280;30544;42.196;24.336;2023-02-14T10:11:06;100310.56;;;9.27;47.19
26376;BME280;30544;42.196;24.336;2023-02-14T10:13:37;100288.00;;;9.24;47.36
26376;BME280;30544;42.196;24.336;2023-02-14T10:16:10;100294.56;;;9.36;47.14
26376;BME280;30544;42.196;24.336;2023-02-14T10:18:45;100292.88;;;9.28;47.45
26376;BME280;30544;42.196;24.336;2023-02-14T10:21:18;100269.03;;;9.08;48.65
26376;BME280;30544;42.196;24.336;2023-02-14T10:23:49;100289.25;;;9.21;48.52
26376;BME280;30544;42.196;24.336;2023-02-14T10:26:20;100274.13;;;9.44;48.40
26376;BME280;30544;42.196;24.336;2023-02-14T10:28:49;100272.00;;;9.32;47.04
26376;BME280;30544;42.196;24.336;2023-02-14T10:31:20;100267.50;;;9.58;47.58
26376;BME280;30544;42.196;24.336;2023-02-14T10:33:53;100261.09;;;9.51;46.63
26376;BME280;30544;42.196;24.336;2023-02-14T10:36:31;100261.88;;;9.84;46.28
26376;BME280;30544;42.196;24.336;2023-02-14T10:39:07;100252.94;;;9.82;46.38
26376;BME280;30544;42.196;24.336;2023-02-14T10:41:44;100246.91;;;9.99;46.82
26376;BME280;30544;42.196;24.336;2023-02-14T10:44:26;100241.09;;;10.07;45.50
26376;BME280;30544;42.196;24.336;2023-02-14T10:47:03;100251.66;;;9.85;47.24
26376;BME280;30544;42.196;24.336;2023-02-14T10:49:40;100251.06;;;9.76;45.96
26376;BME280;30544;42.196;24.336;2023-02-14T10:52:17;100243.88;;;10.07;45.89
26376;BME280;30544;42.196;24.336;2023-02-14T10:54:52;100238.78;;;10.04;45.73
26376;BME280;30544;42.196;24.336;2023-02-14T10:57:24;100240.00;;;10.21;45.96
26376;BME280;30544;42.196;24.336;2023-02-14T10:59:55;100234.69;;;9.48;47.25
26376;BME280;30544;42.196;24.336;2023-02-14T11:02:29;100240.59;;;9.78;47.23
26376;BME280;30544;42.196;24.336;2023-02-14T11:04:58;100234.44;;;9.70;46.85
26376;BME280;30544;42.196;24.336;2023-02-14T11:07:27;100225.13;;;9.57;46.71
26376;BME280;30544;42.196;24.336;2023-02-14T11:09:54;100232.16;;;9.40;46.97
26376;BME280;30544;42.196;24.336;2023-02-14T11:12:33;100237.72;;;9.33;47.55
26376;BME280;30544;42.196;24.336;2023-02-14T11:15:14;100248.56;;;9.42;46.80
26376;BME280;30544;42.196;24.336;2023-02-14T11:17:45;100208.88;;;9.74;46.24
26376;BME280;30544;42.196;24.336;2023-02-14T11:20:21;100239.97;;;9.70;45.83
26376;BME280;30544;42.196;24.336;2023-02-14T11:22:50;100211.13;;;9.90;45.98
26376;BME280;30544;42.196;24.336;2023-02-14T11:25:19;100218.56;;;9.90;46.32
26376;BME280;30544;42.196;24.336;2023-02-14T11:27:47;100215.00;;;9.83;46.50
26376;BME280;30544;42.196;24.336;2023-02-14T11:30:21;100214.16;;;9.82;46.63
26376;BME280;30544;42.196;24.336;2023-02-14T11:32:51;100224.88;;;9.52;47.79
26376;BME280;30544;42.196;24.336;2023-02-14T11:35:22;100199.72;;;9.67;46.38
26376;BME280;30544;42.196;24.336;2023-02-14T11:37:53;100207.22;;;9.47;47.67
26376;BME280;30544;42.196;24.336;2023-02-14T11:40:29;100206.34;;;9.59;47.07
26376;BME280;30544;42.196;24.336;2023-02-14T11:42:57;100199.34;;;10.08;46.00
26376;BME280;30544;42.196;24.336;2023-02-14T11:45:28;100212.47;;;9.75;46.37
26376;BME280;30544;42.196;24.336;2023-02-14T11:48:17;100209.94;;;10.18;46.24
26376;BME280;30544;42.196;24.336;2023-02-14T11:50:55;100205.22;;;9.80;46.96
26376;BME280;30544;42.196;24.336;2023-02-14T11:53:26;100223.50;;;9.88;47.01
26376;BME280;30544;42.196;24.336;2023-02-14T11:55:55;100207.44;;;9.39;47.09
26376;BME280;30544;42.196;24.336;2023-02-14T11:58:30;100200.97;;;9.71;46.53
26376;BME280;30544;42.196;24.336;2023-02-14T12:00:59;100192.78;;;9.89;47.69
26376;BME280;30544;42.196;24.336;2023-02-14T12:03:28;100202.03;;;10.21;46.44
26376;BME280;30544;42.196;24.336;2023-02-14T12:05:58;100224.41;;;9.69;47.79
26376;BME280;30544;42.196;24.336;2023-02-14T12:08:30;100197.53;;;9.82;47.62
26376;BME280;30544;42.196;24.336;2023-02-14T12:11:01;100196.94;;;9.67;47.22
26376;BME280;30544;42.196;24.336;2023-02-14T12:13:28;100192.72;;;9.51;47.31
26376;BME280;30544;42.196;24.336;2023-02-14T12:15:56;100183.94;;;9.74;46.81
26376;BME280;30544;42.196;24.336;2023-02-14T12:18:37;100200.78;;;9.66;46.88
26376;BME280;30544;42.196;24.336;2023-02-14T12:21:23;100187.84;;;9.98;46.40
26376;BME280;30544;42.196;24.336;2023-02-14T12:23:58;100191.53;;;9.85;46.08
26376;BME280;30544;42.196;24.336;2023-02-14T12:26:32;100196.13;;;10.11;46.02
26376;BME280;30544;42.196;24.336;2023-02-14T12:29:05;100202.72;;;9.59;46.65
26376;BME280;30544;42.196;24.336;2023-02-14T12:31:35;100203.41;;;9.99;45.77
26376;BME280;30544;42.196;24.336;2023-02-14T12:34:02;100217.66;;;9.38;46.79
26376;BME280;30544;42.196;24.336;2023-02-14T12:36:48;100205.06;;;9.62;45.33
26376;BME280;30544;42.196;24.336;2023-02-14T12:39:26;100192.38;;;9.92;44.96
26376;BME280;30544;42.196;24.336;2023-02-14T12:42:01;100198.53;;;9.30;46.98
26376;BME280;30544;42.196;24.336;2023-02-14T12:44:37;100176.00;;;9.13;46.80
26376;BME280;30544;42.196;24.336;2023-02-14T12:47:29;100203.38;;;9.48;46.80
26376;BME280;30544;42.196;24.336;2023-02-14T12:50:12;100216.66;;;9.06;47.70
26376;BME280;30544;42.196;24.336;2023-02-14T12:53:23;100218.16;;;8.76;48.47
26376;BME280;30544;42.196;24.336;2023-02-14T12:56:02;100200.06;;;8.99;48.28
26376;BME280;30544;42.196;24.336;2023-02-14T12:58:41;100210.50;;;9.11;47.49
26376;BME280;30544;42.196;24.336;2023-02-14T13:01:28;100223.47;;;9.03;46.76
26376;BME280;30544;42.196;24.336;2023-02-14T13:04:21;100182.34;;;9.20;46.88
26376;BME280;30544;42.196;24.336;2023-02-14T13:06:54;100183.09;;;9.67;46.04
26376;BME280;30544;42.196;24.336;2023-02-14T13:09:30;100192.03;;;9.69;45.67
26376;BME280;30544;42.196;24.336;2023-02-14T13:12:12;100193.66;;;9.05;47.24
26376;BME280;30544;42.196;24.336;2023-02-14T13:14:50;100195.38;;;9.00;47.15